sensor_id;sensor_type;location;lat;lon;timestamp;pressure;altitude;pressure_sealevel;temperature;humidity
1207;BME280;593;53.184;8.216;2023-04-26T00:01:11;101245.75;;;8.36;80.99
1207;BME280;593;53.184;8.216;2023-04-26T00:03:36;101247.38;;;8.37;81.06
1207;BME280;593;53.184;8.216;2023-04-26T00:06:01;101256.81;;;8.35;80.52
1207;BME280;593;53.184;8.216;2023-04-26T00:08:29;101262.44;;;8.28;81.23
1207;BME280;593;53.184;8.216;2023-04-26T00:10:55;101274.91;;;8.29;81.30
1207;BME280;593;53.184;8.216;2023-04-26T00:13:20;101268.09;;;8.27;80.81
1207;BME280;593;53.184;8.216;2023-04-26T00:15:45;101268.09;;;8.27;80.69
1207;BME280;593;53.184;8.216;2023-04-26T00:18:11;101262.09;;;8.25;81.12
1207;BME280;593;53.184;8.216;2023-04-26T00:20:36;101258.00;;;8.22;81.19
1207;BME280;593;53.184;8.216;2023-04-26T00:23:02;101254.22;;;8.23;81.79
1207;BME280;593;53.184;8.216;2023-04-26T00:25:28;101248.25;;;8.21;82.57
1207;BME280;593;53.184;8.216;2023-04-26T00:27:53;101251.75;;;8.22;82.64
1207;BME280;593;53.184;8.216;2023-04-26T00:30:19;101257.38;;;8.15;83.25
1207;BME280;593;53.184;8.216;2023-04-26T00:32:44;101258.50;;;8.19;83.21
1207;BME280;593;53.184;8.216;2023-04-26T00:35:11;101253.00;;;8.14;83.15
1207;BME280;593;53.184;8.216;2023-04-26T00:37:36;101261.97;;;8.15;83.23
1207;BME280;593;53.184;8.216;2023-04-26T00:40:01;101267.16;;;8.16;83.51
1207;BME280;593;53.184;8.216;2023-04-26T00:42:27;101266.88;;;8.18;83.58
1207;BME280;593;53.184;8.216;2023-04-26T00:44:52;101270.34;;;8.13;83.95
1207;BME280;593;53.184;8.216;2023-04-26T00:47:21;101266.75;;;8.08;83.88
1207;BME280;593;53.184;8.216;2023-04-26T00:49:46;101270.34;;;8.13;84.04
1207;BME280;593;53.184;8.216;2023-04-26T00:52:12;101273.06;;;8.13;84.43
1207;BME280;593;53.184;8.216;2023-04-26T00:54:38;101278.22;;;8.15;85.04
1207;BME280;593;53.184;8.216;2023-04-26T00:57:03;101259.50;;;8.13;85.32
1207;BME280;593;53.184;8.216;2023-04-26T00:59:31;101255.97;;;8.13;85.45
1207;BME280;593;53.184;8.216;2023-04-26T01:01:57;101257.38;;;8.15;85.06
1207;BME280;593;53.184;8.216;2023-04-26T01:04:24;101260.06;;;8.15;85.50
1207;BME280;593;53.184;8.216;2023-04-26T01:06:51;101255.22;;;8.17;85.81
1207;BME280;593;53.184;8.216;2023-04-26T01:09:17;101261.72;;;8.16;86.26
1207;BME280;593;53.184;8.216;2023-04-26T01:11:43;101253.53;;;8.11;86.47
1207;BME280;593;53.184;8.216;2023-04-26T01:14:09;101261.97;;;8.15;86.46
1207;BME280;593;53.184;8.216;2023-04-26T01:16:35;101261.13;;;8.14;87.00
1207;BME280;593;53.184;8.216;2023-04-26T01:19:07;101267.38;;;8.15;87.06
1207;BME280;593;53.184;8.216;2023-04-26T01:21:35;101275.28;;;8.16;86.81
1207;BME280;593;53.184;8.216;2023-04-26T01:24:00;101267.44;;;8.20;87.41
1207;BME280;593;53.184;8.216;2023-04-26T01:26:25;101279.59;;;8.17;87.47
1207;BME280;593;53.184;8.216;2023-04-26T01:28:51;101275.00;;;8.18;86.92
1207;BME280;593;53.184;8.216;2023-04-26T01:31:16;101269.03;;;8.16;86.89
1207;BME280;593;53.184;8.216;2023-04-26T01:33:41;101274.69;;;8.14;87.60
1207;BME280;593;53.184;8.216;2023-04-26T01:36:08;101275.50;;;8.15;86.76
1207;BME280;593;53.184;8.216;2023-04-26T01:38:34;101266.47;;;8.09;87.87
1207;BME280;593;53.184;8.216;2023-04-26T01:41:00;101269.78;;;8.11;87.27
1207;BME280;593;53.184;8.216;2023-04-26T01:43:25;101273.06;;;8.13;87.08
1207;BME280;593;53.184;8.216;2023-04-26T01:45:50;101262.97;;;8.09;86.70
1207;BME280;593;53.184;8.216;2023-04-26T01:48:16;101265.69;;;8.09;86.66
1207;BME280;593;53.184;8.216;2023-04-26T01:50:41;101267.06;;;8.11;86.58
1207;BME280;593;53.184;8.216;2023-04-26T01:53:06;101267.31;;;8.10;86.58
1207;BME280;593;53.184;8.216;2023-04-26T01:55:32;101270.84;;;8.10;86.94
1207;BME280;593;53.184;8.216;2023-04-26T01:57:58;101264.59;;;8.10;87.41
1207;BME280;593;53.184;8.216;2023-04-26T02:00:24;101256.19;;;8.06;87.33
1207;BME280;593;53.184;8.216;2023-04-26T02:02:53;101255.91;;;8.08;87.31
1207;BME280;593;53.184;8.216;2023-04-26T02:05:19;101245.91;;;8.08;87.39
1207;BME280;593;53.184;8.216;2023-04-26T02:07:44;101253.47;;;8.06;87.24
1207;BME280;593;53.184;8.216;2023-04-26T02:10:10;101263.22;;;8.07;87.07
1207;BME280;593;53.184;8.216;2023-04-26T02:12:35;101262.66;;;8.05;87.50
1207;BME280;593;53.184;8.216;2023-04-26T02:15:00;101265.03;;;8.02;86.41
1207;BME280;593;53.184;8.216;2023-04-26T02:17:26;101260.44;;;8.02;86.20
1207;BME280;593;53.184;8.216;2023-04-26T02:19:51;101252.00;;;7.99;86.30
1207;BME280;593;53.184;8.216;2023-04-26T02:22:17;101256.91;;;8.02;86.24
1207;BME280;593;53.184;8.216;2023-04-26T02:24:42;101257.44;;;7.99;87.01
1207;BME280;593;53.184;8.216;2023-04-26T02:27:07;101253.00;;;7.93;87.00
1207;BME280;593;53.184;8.216;2023-04-26T02:29:32;101239.66;;;7.86;87.48
1207;BME280;593;53.184;8.216;2023-04-26T02:31:58;101257.91;;;7.96;87.12
1207;BME280;593;53.184;8.216;2023-04-26T02:34:23;101253.34;;;7.96;86.49
1207;BME280;593;53.184;8.216;2023-04-26T02:36:48;101250.63;;;7.96;87.07
1207;BME280;593;53.184;8.216;2023-04-26T02:39:14;101254.66;;;7.94;86.92
1207;BME280;593;53.184;8.216;2023-04-26T02:41:39;101247.03;;;7.91;87.22
1207;BME280;593;53.184;8.216;2023-04-26T02:44:05;101257.34;;;7.94;87.04
1207;BME280;593;53.184;8.216;2023-04-26T02:46:30;101254.59;;;7.89;87.06
1207;BME280;593;53.184;8.216;2023-04-26T02:48:55;101253.50;;;7.90;87.14
1207;BME280;593;53.184;8.216;2023-04-26T02:51:21;101256.75;;;7.92;86.58
1207;BME280;593;53.184;8.216;2023-04-26T02:53:46;101250.56;;;7.91;86.21
1207;BME280;593;53.184;8.216;2023-04-26T02:56:11;101257.28;;;7.89;86.91
1207;BME280;593;53.184;8.216;2023-04-26T02:58:37;101269.75;;;7.90;86.86
1207;BME280;593;53.184;8.216;2023-04-26T03:01:02;101258.84;;;7.85;86.05
1207;BME280;593;53.184;8.216;2023-04-26T03:03:28;101258.53;;;7.81;86.24
1207;BME280;593;53.184;8.216;2023-04-26T03:05:54;101269.44;;;7.86;85.81
1207;BME280;593;53.184;8.216;2023-04-26T03:08:20;101272.38;;;7.85;85.46
1207;BME280;593;53.184;8.216;2023-04-26T03:10:45;101266.66;;;7.81;85.83
1207;BME280;593;53.184;8.216;2023-04-26T03:13:11;101259.03;;;7.78;86.02
1207;BME280;593;53.184;8.216;2023-04-26T03:15:36;101259.25;;;7.76;85.25
1207;BME280;593;53.184;8.216;2023-04-26T03:18:01;101262.22;;;7.75;85.39
1207;BME280;593;53.184;8.216;2023-04-26T03:20:27;101252.41;;;7.69;85.83
1207;BME280;593;53.184;8.216;2023-04-26T03:22:52;101248.53;;;7.65;85.46
1207;BME280;593;53.184;8.216;2023-04-26T03:25:18;101265.94;;;7.69;85.77
1207;BME280;593;53.184;8.216;2023-04-26T03:27:43;101260.69;;;7.62;85.35
1207;BME280;593;53.184;8.216;2023-04-26T03:30:09;101252.50;;;7.57;85.61
1207;BME280;593;53.184;8.216;2023-04-26T03:32:35;101260.94;;;7.61;85.60
1207;BME280;593;53.184;8.216;2023-04-26T03:35:00;101250.34;;;7.59;86.36
1207;BME280;593;53.184;8.216;2023-04-26T03:37:25;101266.03;;;7.57;86.01
1207;BME280;593;53.184;8.216;2023-04-26T03:39:51;101283.34;;;7.56;85.86
1207;BME280;593;53.184;8.216;2023-04-26T03:42:19;101269.97;;;7.50;85.38
1207;BME280;593;53.184;8.216;2023-04-26T03:44:45;101258.91;;;7.51;85.57
1207;BME280;593;53.184;8.216;2023-04-26T03:47:10;101262.09;;;7.48;86.22
1207;BME280;593;53.184;8.216;2023-04-26T03:49:36;101265.88;;;7.47;86.56
1207;BME280;593;53.184;8.216;2023-04-26T03:52:01;101253.66;;;7.45;87.12
1207;BME280;593;53.184;8.216;2023-04-26T03:54:28;101250.13;;;7.44;86.77
1207;BME280;593;53.184;8.216;2023-04-26T03:56:53;101253.66;;;7.45;87.48
1207;BME280;593;53.184;8.216;2023-04-26T03:59:20;101249.88;;;7.46;87.65
1207;BME280;593;53.184;8.216;2023-04-26T04:01:46;101258.00;;;7.46;87.50
1207;BME280;593;53.184;8.216;2023-04-26T04:04:11;101241.13;;;7.39;87.92
1207;BME280;593;53.184;8.216;2023-04-26T04:06:36;101242.00;;;7.44;88.21
1207;BME280;593;53.184;8.216;2023-04-26T04:09:02;101247.41;;;7.44;87.49
1207;BME280;593;53.184;8.216;2023-04-26T04:11:29;101260.72;;;7.46;87.67
1207;BME280;593;53.184;8.216;2023-04-26T04:13:54;101251.19;;;7.43;88.28
1207;BME280;593;53.184;8.216;2023-04-26T04:16:20;101262.59;;;7.45;87.73
1207;BME280;593;53.184;8.216;2023-04-26T04:18:45;101265.56;;;7.44;88.56
1207;BME280;593;53.184;8.216;2023-04-26T04:21:11;101260.16;;;7.44;88.11
1207;BME280;593;53.184;8.216;2023-04-26T04:23:36;101274.56;;;7.49;88.47
1207;BME280;593;53.184;8.216;2023-04-26T04:26:01;101262.94;;;7.49;88.02
1207;BME280;593;53.184;8.216;2023-04-26T04:28:27;101258.91;;;7.51;88.34
1207;BME280;593;53.184;8.216;2023-04-26T04:30:53;101256.19;;;7.51;89.02
1207;BME280;593;53.184;8.216;2023-04-26T04:33:21;101258.66;;;7.53;88.46
1207;BME280;593;53.184;8.216;2023-04-26T04:35:46;101251.59;;;7.52;88.63
1207;BME280;593;53.184;8.216;2023-04-26T04:38:11;101257.25;;;7.50;88.62
1207;BME280;593;53.184;8.216;2023-04-26T04:40:37;101259.00;;;7.56;89.38
1207;BME280;593;53.184;8.216;2023-04-26T04:43:02;101261.69;;;7.56;88.85
1207;BME280;593;53.184;8.216;2023-04-26T04:45:27;101260.63;;;7.57;88.93
1207;BME280;593;53.184;8.216;2023-04-26T04:47:53;101266.34;;;7.61;88.99
1207;BME280;593;53.184;8.216;2023-04-26T04:50:18;101272.59;;;7.61;88.44
1207;BME280;593;53.184;8.216;2023-04-26T04:52:44;101280.47;;;7.63;89.16
1207;BME280;593;53.184;8.216;2023-04-26T04:55:09;101267.75;;;7.63;89.90
1207;BME280;593;53.184;8.216;2023-04-26T04:57:35;101278.09;;;7.66;89.37
1207;BME280;593;53.184;8.216;2023-04-26T05:00:00;101282.13;;;7.64;89.37
1207;BME280;593;53.184;8.216;2023-04-26T05:02:34;101278.09;;;7.66;88.34
1207;BME280;593;53.184;8.216;2023-04-26T05:05:01;101285.38;;;7.66;88.30
1207;BME280;593;53.184;8.216;2023-04-26T05:07:32;101285.69;;;7.69;89.64
1207;BME280;593;53.184;8.216;2023-04-26T05:09:58;101285.13;;;7.67;89.42
1207;BME280;593;53.184;8.216;2023-04-26T05:12:25;101303.09;;;7.73;89.01
1207;BME280;593;53.184;8.216;2023-04-26T05:14:51;101301.72;;;7.71;89.44
1207;BME280;593;53.184;8.216;2023-04-26T05:17:16;101293.88;;;7.74;90.51
1207;BME280;593;53.184;8.216;2023-04-26T05:19:42;101284.72;;;7.75;90.55
1207;BME280;593;53.184;8.216;2023-04-26T05:22:07;101283.06;;;7.74;90.25
1207;BME280;593;53.184;8.216;2023-04-26T05:24:33;101290.44;;;7.79;90.27
1207;BME280;593;53.184;8.216;2023-04-26T05:26:59;101285.03;;;7.79;91.25
1207;BME280;593;53.184;8.216;2023-04-26T05:29:28;101285.84;;;7.80;90.72
1207;BME280;593;53.184;8.216;2023-04-26T05:31:54;101290.78;;;7.83;90.69
1207;BME280;593;53.184;8.216;2023-04-26T05:34:20;101285.09;;;7.84;91.05
1207;BME280;593;53.184;8.216;2023-04-26T05:36:48;101282.91;;;7.81;91.72
1207;BME280;593;53.184;8.216;2023-04-26T05:39:14;101289.19;;;7.87;91.29
1207;BME280;593;53.184;8.216;2023-04-26T05:41:40;101287.56;;;7.86;91.62
1207;BME280;593;53.184;8.216;2023-04-26T05:44:06;101284.03;;;7.85;91.57
1207;BME280;593;53.184;8.216;2023-04-26T05:46:31;101297.09;;;7.88;92.02
1207;BME280;593;53.184;8.216;2023-04-26T05:48:57;101287.38;;;7.92;91.16
1207;BME280;593;53.184;8.216;2023-04-26T05:51:22;101294.75;;;7.97;91.36
1207;BME280;593;53.184;8.216;2023-04-26T05:53:48;101296.16;;;7.99;91.78
1207;BME280;593;53.184;8.216;2023-04-26T05:56:13;101295.66;;;8.02;91.93
1207;BME280;593;53.184;8.216;2023-04-26T05:58:39;101296.47;;;8.03;91.65
1207;BME280;593;53.184;8.216;2023-04-26T06:01:05;101296.22;;;8.04;92.48
1207;BME280;593;53.184;8.216;2023-04-26T06:03:31;101303.69;;;8.14;91.60
1207;BME280;593;53.184;8.216;2023-04-26T06:05:58;101291.75;;;8.15;90.69
1207;BME280;593;53.184;8.216;2023-04-26T06:08:23;101297.81;;;8.22;90.34
1207;BME280;593;53.184;8.216;2023-04-26T06:10:49;101293.78;;;8.24;90.93
1207;BME280;593;53.184;8.216;2023-04-26T06:13:14;101296.34;;;8.31;90.74
1207;BME280;593;53.184;8.216;2023-04-26T06:15:40;101299.34;;;8.34;90.22
1207;BME280;593;53.184;8.216;2023-04-26T06:18:06;101299.69;;;8.38;90.01
1207;BME280;593;53.184;8.216;2023-04-26T06:20:32;101304.41;;;8.48;90.10
1207;BME280;593;53.184;8.216;2023-04-26T06:22:57;101305.84;;;8.55;89.31
1207;BME280;593;53.184;8.216;2023-04-26T06:25:22;101316.50;;;8.62;89.81
1207;BME280;593;53.184;8.216;2023-04-26T06:27:47;101309.56;;;8.71;89.23
1207;BME280;593;53.184;8.216;2023-04-26T06:30:13;101310.97;;;8.73;89.63
1207;BME280;593;53.184;8.216;2023-04-26T06:32:41;101312.44;;;8.86;89.71
1207;BME280;593;53.184;8.216;2023-04-26T06:35:07;101319.59;;;8.97;89.00
1207;BME280;593;53.184;8.216;2023-04-26T06:37:33;101319.97;;;9.06;88.65
1207;BME280;593;53.184;8.216;2023-04-26T06:39:58;101322.53;;;9.17;87.67
1207;BME280;593;53.184;8.216;2023-04-26T06:42:24;101328.59;;;9.24;88.28
1207;BME280;593;53.184;8.216;2023-04-26T06:44:49;101324.28;;;9.28;87.41
1207;BME280;593;53.184;8.216;2023-04-26T06:47:15;101327.41;;;9.42;87.13
1207;BME280;593;53.184;8.216;2023-04-26T06:49:40;101320.91;;;9.48;86.91
1207;BME280;593;53.184;8.216;2023-04-26T06:52:06;101318.28;;;9.58;86.54
1207;BME280;593;53.184;8.216;2023-04-26T06:54:31;101329.78;;;9.70;86.03
1207;BME280;593;53.184;8.216;2023-04-26T06:56:57;101331.19;;;9.78;85.06
1207;BME280;593;53.184;8.216;2023-04-26T06:59:22;101326.66;;;9.88;84.50
1207;BME280;593;53.184;8.216;2023-04-26T07:01:48;101320.19;;;9.94;83.58
1207;BME280;593;53.184;8.216;2023-04-26T07:04:13;101326.44;;;10.00;82.80
1207;BME280;593;53.184;8.216;2023-04-26T07:06:39;101323.81;;;10.10;82.38
1207;BME280;593;53.184;8.216;2023-04-26T07:09:05;101327.69;;;10.14;81.72
1207;BME280;593;53.184;8.216;2023-04-26T07:11:30;101327.47;;;10.25;81.45
1207;BME280;593;53.184;8.216;2023-04-26T07:13:56;101323.41;;;10.28;81.61
1207;BME280;593;53.184;8.216;2023-04-26T07:16:21;101326.69;;;10.35;80.93
1207;BME280;593;53.184;8.216;2023-04-26T07:18:47;101329.22;;;10.47;79.79
1207;BME280;593;53.184;8.216;2023-04-26T07:21:13;101328.44;;;10.56;78.58
1207;BME280;593;53.184;8.216;2023-04-26T07:23:38;101333.38;;;10.64;78.29
1207;BME280;593;53.184;8.216;2023-04-26T07:26:03;101334.19;;;10.70;78.16
1207;BME280;593;53.184;8.216;2023-04-26T07:28:30;101321.69;;;10.74;77.90
1207;BME280;593;53.184;8.216;2023-04-26T07:30:57;101329.06;;;10.83;77.06
1207;BME280;593;53.184;8.216;2023-04-26T07:33:22;101332.38;;;10.95;76.98
1207;BME280;593;53.184;8.216;2023-04-26T07:35:55;101328.84;;;11.00;76.69
1207;BME280;593;53.184;8.216;2023-04-26T07:38:21;101315.78;;;11.02;76.43
1207;BME280;593;53.184;8.216;2023-04-26T07:40:46;101326.72;;;11.12;76.60
1207;BME280;593;53.184;8.216;2023-04-26T07:43:12;101332.13;;;11.22;76.17
1207;BME280;593;53.184;8.216;2023-04-26T07:45:39;101330.78;;;11.25;76.17
1207;BME280;593;53.184;8.216;2023-04-26T07:48:05;101332.16;;;11.27;74.60
1207;BME280;593;53.184;8.216;2023-04-26T07:50:30;101335.97;;;11.26;74.66
1207;BME280;593;53.184;8.216;2023-04-26T07:52:55;101328.63;;;11.32;73.28
1207;BME280;593;53.184;8.216;2023-04-26T07:55:21;101332.44;;;11.41;73.27
1207;BME280;593;53.184;8.216;2023-04-26T07:57:46;101319.13;;;11.44;73.87
1207;BME280;593;53.184;8.216;2023-04-26T08:00:12;101327.53;;;11.48;73.47
1207;BME280;593;53.184;8.216;2023-04-26T08:02:38;101337.38;;;11.49;72.76
1207;BME280;593;53.184;8.216;2023-04-26T08:05:04;101329.19;;;11.54;72.22
1207;BME280;593;53.184;8.216;2023-04-26T08:07:29;101320.47;;;11.52;71.77
1207;BME280;593;53.184;8.216;2023-04-26T08:09:55;101335.47;;;11.54;71.15
1207;BME280;593;53.184;8.216;2023-04-26T08:12:20;101327.28;;;11.54;70.24
1207;BME280;593;53.184;8.216;2023-04-26T08:14:45;101335.47;;;11.59;69.49
1207;BME280;593;53.184;8.216;2023-04-26T08:17:11;101334.91;;;11.57;69.51
1207;BME280;593;53.184;8.216;2023-04-26T08:19:36;101342.53;;;11.60;68.87
1207;BME280;593;53.184;8.216;2023-04-26T08:22:02;101335.19;;;11.61;68.48
1207;BME280;593;53.184;8.216;2023-04-26T08:24:28;101343.91;;;11.63;67.68
1207;BME280;593;53.184;8.216;2023-04-26T08:26:54;101339.56;;;11.67;67.29
1207;BME280;593;53.184;8.216;2023-04-26T08:29:21;101346.41;;;11.70;67.29
1207;BME280;593;53.184;8.216;2023-04-26T08:31:47;101345.56;;;11.69;66.51
1207;BME280;593;53.184;8.216;2023-04-26T08:34:12;101352.09;;;11.73;66.61
1207;BME280;593;53.184;8.216;2023-04-26T08:36:39;101353.47;;;11.76;66.77
1207;BME280;593;53.184;8.216;2023-04-26T08:39:05;101351.28;;;11.73;66.75
1207;BME280;593;53.184;8.216;2023-04-26T08:41:35;101367.63;;;11.78;66.64
1207;BME280;593;53.184;8.216;2023-04-26T08:44:03;101375.81;;;11.78;66.42
1207;BME280;593;53.184;8.216;2023-04-26T08:46:35;101380.47;;;11.77;66.25
1207;BME280;593;53.184;8.216;2023-04-26T08:49:12;101370.06;;;11.64;67.94
1207;BME280;593;53.184;8.216;2023-04-26T08:51:42;101393.53;;;11.75;68.58
1207;BME280;593;53.184;8.216;2023-04-26T08:54:09;101393.53;;;11.75;69.29
1207;BME280;593;53.184;8.216;2023-04-26T08:56:36;101392.16;;;11.73;70.66
1207;BME280;593;53.184;8.216;2023-04-26T08:59:03;101383.94;;;11.68;71.67
1207;BME280;593;53.184;8.216;2023-04-26T09:01:29;101378.78;;;11.66;72.23
1207;BME280;593;53.184;8.216;2023-04-26T09:03:55;101374.97;;;11.62;72.49
1207;BME280;593;53.184;8.216;2023-04-26T09:06:22;101385.88;;;11.62;72.97
1207;BME280;593;53.184;8.216;2023-04-26T09:08:49;101381.50;;;11.56;73.70
1207;BME280;593;53.184;8.216;2023-04-26T09:11:16;101384.22;;;11.56;74.19
1207;BME280;593;53.184;8.216;2023-04-26T09:13:41;101372.50;;;11.50;74.65
1207;BME280;593;53.184;8.216;2023-04-26T09:16:07;101379.59;;;11.51;75.07
1207;BME280;593;53.184;8.216;2023-04-26T09:18:32;101373.31;;;11.51;76.91
1207;BME280;593;53.184;8.216;2023-04-26T09:21:05;101364.06;;;11.47;77.11
1207;BME280;593;53.184;8.216;2023-04-26T09:23:32;101370.88;;;11.49;77.84
1207;BME280;593;53.184;8.216;2023-04-26T09:26:20;101362.41;;;11.51;78.23
1207;BME280;593;53.184;8.216;2023-04-26T09:28:46;101364.31;;;11.50;79.63
1207;BME280;593;53.184;8.216;2023-04-26T09:31:35;101367.88;;;11.51;80.80
1207;BME280;593;53.184;8.216;2023-04-26T09:34:01;101364.59;;;11.49;81.93
1207;BME280;593;53.184;8.216;2023-04-26T09:36:26;101380.41;;;11.52;81.76
1207;BME280;593;53.184;8.216;2023-04-26T09:38:51;101388.84;;;11.50;81.91
1207;BME280;593;53.184;8.216;2023-04-26T09:41:17;101379.59;;;11.51;83.08
1207;BME280;593;53.184;8.216;2023-04-26T09:43:42;101388.59;;;11.57;82.19
1207;BME280;593;53.184;8.216;2023-04-26T09:46:07;101398.66;;;11.56;80.60
1207;BME280;593;53.184;8.216;2023-04-26T09:48:34;101392.41;;;11.56;79.31
1207;BME280;593;53.184;8.216;2023-04-26T09:55:57;101389.13;;;11.59;76.04
1207;BME280;593;53.184;8.216;2023-04-26T09:58:29;101393.47;;;11.60;75.51
1207;BME280;593;53.184;8.216;2023-04-26T10:00:55;101389.69;;;11.61;75.37
1207;BME280;593;53.184;8.216;2023-04-26T10:03:22;101393.22;;;11.62;74.46
1207;BME280;593;53.184;8.216;2023-04-26T10:05:47;101392.13;;;11.63;75.32
1207;BME280;593;53.184;8.216;2023-04-26T10:08:13;101385.31;;;11.60;75.05
1207;BME280;593;53.184;8.216;2023-04-26T10:10:40;101389.69;;;11.61;75.38
1207;BME280;593;53.184;8.216;2023-04-26T10:13:06;101380.13;;;11.58;74.59
1207;BME280;593;53.184;8.216;2023-04-26T10:15:31;101381.22;;;11.57;74.74
1207;BME280;593;53.184;8.216;2023-04-26T10:17:57;101387.22;;;11.59;74.85
1207;BME280;593;53.184;8.216;2023-04-26T10:20:23;101381.78;;;11.65;74.83
1207;BME280;593;53.184;8.216;2023-04-26T10:22:52;101379.84;;;11.65;74.26
1207;BME280;593;53.184;8.216;2023-04-26T10:25:19;101378.50;;;11.63;74.72
1207;BME280;593;53.184;8.216;2023-04-26T10:30:13;101368.41;;;11.63;74.30
1207;BME280;593;53.184;8.216;2023-04-26T10:35:16;101376.06;;;11.66;73.43
1207;BME280;593;53.184;8.216;2023-04-26T10:40:25;101364.66;;;11.69;71.07
1207;BME280;593;53.184;8.216;2023-04-26T10:45:40;101370.31;;;11.68;71.13
1207;BME280;593;53.184;8.216;2023-04-26T10:48:20;101383.72;;;11.74;71.02
1207;BME280;593;53.184;8.216;2023-04-26T10:53:23;101370.34;;;11.78;71.80
1207;BME280;593;53.184;8.216;2023-04-26T10:55:49;101370.63;;;11.76;72.11
1207;BME280;593;53.184;8.216;2023-04-26T10:58:28;101381.25;;;11.83;72.75
1207;BME280;593;53.184;8.216;2023-04-26T11:01:09;101373.38;;;11.81;73.87
1207;BME280;593;53.184;8.216;2023-04-26T11:06:23;101376.91;;;11.82;73.86
1207;BME280;593;53.184;8.216;2023-04-26T11:08:49;101380.19;;;11.84;73.82
1207;BME280;593;53.184;8.216;2023-04-26T11:11:16;101374.72;;;11.84;72.73
1207;BME280;593;53.184;8.216;2023-04-26T11:13:44;101384.56;;;11.85;72.48
1207;BME280;593;53.184;8.216;2023-04-26T11:16:11;101377.44;;;11.84;71.80
1207;BME280;593;53.184;8.216;2023-04-26T11:18:42;101376.91;;;11.87;71.66
1207;BME280;593;53.184;8.216;2023-04-26T11:21:08;101370.91;;;11.85;71.31
1207;BME280;593;53.184;8.216;2023-04-26T11:23:34;101369.81;;;11.86;70.94
1207;BME280;593;53.184;8.216;2023-04-26T11:26:02;101367.63;;;11.88;71.56
1207;BME280;593;53.184;8.216;2023-04-26T11:28:29;101366.53;;;11.89;70.94
1207;BME280;593;53.184;8.216;2023-04-26T11:30:56;101370.91;;;11.90;71.07
1207;BME280;593;53.184;8.216;2023-04-26T11:33:21;101372.28;;;11.87;71.05
1207;BME280;593;53.184;8.216;2023-04-26T11:35:56;101377.44;;;11.89;70.62
1207;BME280;593;53.184;8.216;2023-04-26T11:38:26;101385.63;;;11.89;69.99
1207;BME280;593;53.184;8.216;2023-04-26T11:40:54;101380.19;;;11.89;69.62
1207;BME280;593;53.184;8.216;2023-04-26T11:43:20;101362.75;;;11.85;69.30
1207;BME280;593;53.184;8.216;2023-04-26T11:45:45;101376.63;;;11.88;68.81
1207;BME280;593;53.184;8.216;2023-04-26T11:48:11;101371.19;;;11.83;68.73
1207;BME280;593;53.184;8.216;2023-04-26T11:50:38;101373.06;;;11.88;68.14
1207;BME280;593;53.184;8.216;2023-04-26T11:53:08;101376.38;;;11.90;67.82
1207;BME280;593;53.184;8.216;2023-04-26T11:55:34;101380.72;;;11.96;68.75
1207;BME280;593;53.184;8.216;2023-04-26T11:58:01;101383.44;;;11.96;67.95
1207;BME280;593;53.184;8.216;2023-04-26T12:00:33;101381.53;;;11.96;67.91
1207;BME280;593;53.184;8.216;2023-04-26T12:03:03;101382.34;;;11.97;67.26
1207;BME280;593;53.184;8.216;2023-04-26T12:05:29;101391.63;;;12.01;66.92
1207;BME280;593;53.184;8.216;2023-04-26T12:07:56;101396.81;;;12.02;67.70
1207;BME280;593;53.184;8.216;2023-04-26T12:10:27;101396.53;;;12.04;67.92
1207;BME280;593;53.184;8.216;2023-04-26T12:12:54;101397.59;;;12.03;67.27
1207;BME280;593;53.184;8.216;2023-04-26T12:15:27;101398.44;;;12.03;67.49
1207;BME280;593;53.184;8.216;2023-04-26T12:18:07;101398.72;;;12.02;67.80
1207;BME280;593;53.184;8.216;2023-04-26T12:20:38;101398.72;;;12.07;68.33
1207;BME280;593;53.184;8.216;2023-04-26T12:23:13;101397.34;;;12.09;67.84
1207;BME280;593;53.184;8.216;2023-04-26T12:25:40;101390.53;;;12.07;67.07
1207;BME280;593;53.184;8.216;2023-04-26T12:28:09;101390.25;;;12.13;68.14
1207;BME280;593;53.184;8.216;2023-04-26T12:30:37;101397.34;;;12.14;68.68
1207;BME280;593;53.184;8.216;2023-04-26T12:33:03;101390.78;;;12.15;68.01
1207;BME280;593;53.184;8.216;2023-04-26T12:35:29;101398.94;;;12.20;68.03
1207;BME280;593;53.184;8.216;2023-04-26T12:37:55;101405.75;;;12.28;68.72
1207;BME280;593;53.184;8.216;2023-04-26T12:40:22;101410.13;;;12.34;68.69
1207;BME280;593;53.184;8.216;2023-04-26T12:42:48;101401.41;;;12.37;67.75
1207;BME280;593;53.184;8.216;2023-04-26T12:45:14;101400.03;;;12.40;67.28
1207;BME280;593;53.184;8.216;2023-04-26T12:47:39;101403.84;;;12.39;66.14
1207;BME280;593;53.184;8.216;2023-04-26T12:50:05;101400.28;;;12.43;66.25
1207;BME280;593;53.184;8.216;2023-04-26T12:52:31;101408.19;;;12.45;65.47
1207;BME280;593;53.184;8.216;2023-04-26T12:54:57;101403.28;;;12.47;65.51
1207;BME280;593;53.184;8.216;2023-04-26T12:57:22;101400.81;;;12.45;65.09
1207;BME280;593;53.184;8.216;2023-04-26T12:59:47;101412.81;;;12.49;64.57
1207;BME280;593;53.184;8.216;2023-04-26T13:02:12;101414.19;;;12.52;64.30
1207;BME280;593;53.184;8.216;2023-04-26T13:04:38;101419.34;;;12.53;64.14
1207;BME280;593;53.184;8.216;2023-04-26T13:07:04;101411.69;;;12.55;63.60
1207;BME280;593;53.184;8.216;2023-04-26T13:09:29;101408.97;;;12.55;63.88
1207;BME280;593;53.184;8.216;2023-04-26T13:11:54;101410.63;;;12.51;64.60
1207;BME280;593;53.184;8.216;2023-04-26T13:14:20;101408.44;;;12.53;63.83
1207;BME280;593;53.184;8.216;2023-04-26T13:16:47;101410.63;;;12.56;62.61
1207;BME280;593;53.184;8.216;2023-04-26T13:19:13;101402.97;;;12.53;62.06
1207;BME280;593;53.184;8.216;2023-04-26T13:21:38;101416.34;;;12.60;61.94
1207;BME280;593;53.184;8.216;2023-04-26T13:24:05;101414.69;;;12.59;62.04
1207;BME280;593;53.184;8.216;2023-04-26T13:26:30;101420.69;;;12.66;61.11
1207;BME280;593;53.184;8.216;2023-04-26T13:28:56;101408.94;;;12.65;61.52
1207;BME280;593;53.184;8.216;2023-04-26T13:31:21;101424.75;;;12.73;60.83
1207;BME280;593;53.184;8.216;2023-04-26T13:33:48;101424.22;;;12.76;60.72
1207;BME280;593;53.184;8.216;2023-04-26T13:36:14;101424.75;;;12.78;61.25
1207;BME280;593;53.184;8.216;2023-04-26T13:38:40;101433.19;;;12.82;60.30
1207;BME280;593;53.184;8.216;2023-04-26T13:41:06;101431.03;;;12.79;59.92
1207;BME280;593;53.184;8.216;2023-04-26T13:43:32;101429.63;;;12.86;60.11